createdAt,value
2017-12-03T00:00:09.678Z,98876.84
2017-12-03T00:01:12.691Z,98881.08
2017-12-03T00:02:15.669Z,98874.11
2017-12-03T00:03:18.743Z,98871.91
2017-12-03T00:04:22.988Z,98866.80
2017-12-03T00:05:25.935Z,98868.89
2017-12-03T00:06:28.801Z,98870.44
2017-12-03T00:07:31.681Z,98870.17
2017-12-03T00:08:34.627Z,98864.31
2017-12-03T00:09:37.501Z,98865.91
2017-12-03T00:10:40.820Z,98866.37
2017-12-03T00:11:43.719Z,98867.28
2017-12-03T00:12:46.643Z,98867.20
2017-12-03T00:13:49.523Z,98861.10
2017-12-03T00:14:52.401Z,98863.86
2017-12-03T00:15:55.356Z,98856.52
2017-12-03T00:16:58.740Z,98858.61
2017-12-03T00:18:01.667Z,98856.44
2017-12-03T00:19:04.590Z,98860.28
2017-12-03T00:20:07.527Z,98856.38
2017-12-03T00:21:10.444Z,98860.53
2017-12-03T00:22:13.336Z,98851.88
2017-12-03T00:23:16.737Z,98858.88
2017-12-03T00:24:19.641Z,98854.64
2017-12-03T00:25:22.577Z,98855.39
2017-12-03T00:26:25.521Z,98860.72
2017-12-03T00:27:28.535Z,98859.03
2017-12-03T00:28:31.477Z,98865.31
2017-12-03T00:29:34.803Z,98858.94
2017-12-03T00:30:37.764Z,98862.04
2017-12-03T00:31:40.703Z,98858.63
2017-12-03T00:32:43.608Z,98860.23
2017-12-03T00:33:46.516Z,98864.91
2017-12-03T00:34:49.464Z,98862.70
2017-12-03T00:35:52.859Z,98869.95
2017-12-03T00:36:55.789Z,98869.88
2017-12-03T00:37:58.688Z,98875.77
2017-12-03T00:39:01.649Z,98879.69
2017-12-03T00:40:04.583Z,98874.92
2017-12-03T00:41:07.520Z,98867.94
2017-12-03T00:42:10.872Z,98866.17
2017-12-03T00:43:13.808Z,98870.24
2017-12-03T00:44:16.798Z,98870.69
2017-12-03T00:45:19.693Z,98863.72
2017-12-03T00:46:22.639Z,98868.66
2017-12-03T00:47:25.583Z,98867.85
2017-12-03T00:48:28.922Z,98865.55
2017-12-03T00:49:31.855Z,98867.56
2017-12-03T00:50:34.752Z,98863.23
2017-12-03T00:51:37.690Z,98865.00
2017-12-03T00:52:40.629Z,98869.67
2017-12-03T00:53:43.546Z,98858.61
2017-12-03T00:54:46.795Z,98864.47
2017-12-03T00:55:49.664Z,98862.01
2017-12-03T00:56:52.644Z,98860.12
2017-12-03T00:57:55.610Z,98861.53
2017-12-03T00:58:58.538Z,98861.72
2017-12-03T01:00:01.472Z,98868.93
2017-12-03T01:01:04.848Z,98865.06
2017-12-03T01:02:07.770Z,98873.53
2017-12-03T01:03:10.705Z,98871.39
2017-12-03T01:04:13.611Z,98864.18
2017-12-03T01:05:16.570Z,98862.97
2017-12-03T01:06:19.459Z,98863.23
2017-12-03T01:07:22.732Z,98862.55
2017-12-03T01:08:25.704Z,98860.05
2017-12-03T01:09:28.718Z,98852.78
2017-12-03T01:10:31.736Z,98857.27
2017-12-03T01:11:34.737Z,98857.92
2017-12-03T01:12:37.681Z,98855.70
2017-12-03T01:13:41.534Z,98849.28
2017-12-03T01:14:44.453Z,98849.83
2017-12-03T01:15:47.463Z,98851.57
2017-12-03T01:16:50.328Z,98847.41
2017-12-03T01:17:53.365Z,98851.70
2017-12-03T01:18:56.259Z,98848.53
2017-12-03T01:19:59.583Z,98853.70
2017-12-03T01:21:02.426Z,98850.10
2017-12-03T01:22:05.548Z,98853.87
2017-12-03T01:23:08.414Z,98854.02
2017-12-03T01:24:11.289Z,98852.13
2017-12-03T01:25:14.260Z,98856.75
2017-12-03T01:26:17.582Z,98849.70
2017-12-03T01:27:20.389Z,98852.55
2017-12-03T01:28:23.389Z,98848.72
2017-12-03T01:29:26.303Z,98851.95
2017-12-03T01:30:29.184Z,98854.12
2017-12-03T01:31:32.084Z,98851.00
2017-12-03T01:32:35.392Z,98856.85
2017-12-03T01:33:38.307Z,98848.25
2017-12-03T01:34:41.269Z,98851.77
2017-12-03T01:35:44.140Z,98849.86
2017-12-03T01:36:47.062Z,98852.37
2017-12-03T01:37:50.018Z,98848.53
2017-12-03T01:38:53.396Z,98854.05
2017-12-03T01:39:56.323Z,98842.91
2017-12-03T01:40:59.219Z,98846.66
2017-12-03T01:42:02.124Z,98854.57
2017-12-03T01:43:05.011Z,98841.89
2017-12-03T01:44:07.853Z,98845.77
2017-12-03T01:45:10.993Z,98847.46
2017-12-03T01:46:13.856Z,98850.70
2017-12-03T01:47:16.706Z,98844.43
2017-12-03T01:48:19.598Z,98849.10
2017-12-03T01:49:22.573Z,98854.22
2017-12-03T01:50:25.455Z,98850.00
2017-12-03T01:51:28.745Z,98846.69
2017-12-03T01:52:31.624Z,98849.91
2017-12-03T01:53:34.788Z,98854.47
2017-12-03T01:54:37.731Z,98854.35
2017-12-03T01:55:40.709Z,98861.29
2017-12-03T01:56:43.655Z,98862.67
2017-12-03T01:57:46.924Z,98866.31
2017-12-03T01:58:49.905Z,98861.75
2017-12-03T01:59:52.711Z,98863.56
2017-12-03T02:00:55.521Z,98853.14
2017-12-03T02:01:58.382Z,98852.64
2017-12-03T02:03:01.302Z,98852.28
2017-12-03T02:04:04.565Z,98853.67
2017-12-03T02:05:07.460Z,98850.52
2017-12-03T02:06:10.521Z,98860.05
2017-12-03T02:07:13.414Z,98855.66
2017-12-03T02:08:16.431Z,98852.00
2017-12-03T02:09:19.352Z,98857.45
2017-12-03T02:10:22.706Z,98844.53
2017-12-03T02:11:25.801Z,98856.35
2017-12-03T02:12:28.701Z,98852.66
2017-12-03T02:13:31.591Z,98856.22
2017-12-03T02:14:34.467Z,98854.36
2017-12-03T02:15:37.382Z,98845.48
2017-12-03T02:16:41.067Z,98847.58
2017-12-03T02:17:43.984Z,98846.17
2017-12-03T02:18:46.957Z,98847.34
2017-12-03T02:19:49.847Z,98842.20
2017-12-03T02:20:52.925Z,98848.42
2017-12-03T02:21:55.834Z,98845.71
2017-12-03T02:22:59.224Z,98842.73
2017-12-03T02:24:02.177Z,98843.88
2017-12-03T02:25:05.081Z,98843.05
2017-12-03T02:26:08.062Z,98845.80
2017-12-03T02:27:11.027Z,98842.37
2017-12-03T02:28:14.031Z,98846.98
2017-12-03T02:29:17.269Z,98843.88
2017-12-03T02:30:20.291Z,98843.19
2017-12-03T02:31:23.332Z,98843.94
2017-12-03T02:32:26.325Z,98839.61
2017-12-03T02:33:29.453Z,98839.12
2017-12-03T02:34:32.328Z,98844.56
2017-12-03T02:35:35.729Z,98845.80
2017-12-03T02:36:38.645Z,98837.95
2017-12-03T02:37:41.613Z,98843.77
2017-12-03T02:38:44.531Z,98840.38
2017-12-03T02:39:47.453Z,98844.63
2017-12-03T02:40:50.391Z,98838.97
2017-12-03T02:41:53.663Z,98842.45
2017-12-03T02:42:56.514Z,98839.03
2017-12-03T02:43:59.357Z,98828.92
2017-12-03T02:45:02.283Z,98836.66
2017-12-03T02:46:05.195Z,98832.33
2017-12-03T02:47:08.169Z,98830.20
2017-12-03T02:48:11.435Z,98832.08
2017-12-03T02:49:14.358Z,98828.66
2017-12-03T02:50:17.303Z,98840.77
2017-12-03T02:51:20.223Z,98834.34
2017-12-03T02:52:23.178Z,98821.19
2017-12-03T02:53:26.109Z,98826.80
2017-12-03T02:54:29.523Z,98831.25
2017-12-03T02:55:32.562Z,98828.75
2017-12-03T02:56:35.471Z,98830.16
2017-12-03T02:57:38.414Z,98825.63
2017-12-03T02:58:41.325Z,98824.16
2017-12-03T02:59:44.267Z,98829.19
2017-12-03T03:00:47.621Z,98826.83
2017-12-03T03:01:50.532Z,98829.91
2017-12-03T03:02:53.443Z,98826.48
2017-12-03T03:03:56.366Z,98826.55
2017-12-03T03:04:59.298Z,98829.23
2017-12-03T03:06:02.241Z,98825.12
2017-12-03T03:07:05.631Z,98825.67
2017-12-03T03:08:08.561Z,98820.91
2017-12-03T03:09:11.474Z,98821.66
2017-12-03T03:10:14.393Z,98821.85
2017-12-03T03:11:17.304Z,98823.78
2017-12-03T03:12:20.233Z,98819.95
2017-12-03T03:13:23.476Z,98819.41
2017-12-03T03:14:26.512Z,98819.51
2017-12-03T03:15:29.374Z,98815.11
2017-12-03T03:16:32.297Z,98817.05
2017-12-03T03:17:35.130Z,98814.48
2017-12-03T03:18:37.986Z,98811.99
2017-12-03T03:19:41.223Z,98811.05
2017-12-03T03:20:44.148Z,98809.73
2017-12-03T03:21:47.131Z,98814.78
2017-12-03T03:22:50.030Z,98803.87
2017-12-03T03:23:52.976Z,98803.86
2017-12-03T03:24:55.946Z,98805.09
2017-12-03T03:25:59.339Z,98802.08
2017-12-03T03:27:02.260Z,98801.44
2017-12-03T03:28:05.198Z,98798.34
2017-12-03T03:29:08.161Z,98796.99
2017-12-03T03:30:11.093Z,98792.66
2017-12-03T03:31:14.002Z,98796.97
2017-12-03T03:32:17.317Z,98789.78
2017-12-03T03:33:20.259Z,98786.35
2017-12-03T03:34:23.153Z,98789.20
2017-12-03T03:35:26.083Z,98782.17
2017-12-03T03:36:29.030Z,98781.84
2017-12-03T03:37:32.342Z,98782.23
2017-12-03T03:38:35.260Z,98776.70
2017-12-03T03:39:38.195Z,98780.44
2017-12-03T03:40:41.130Z,98779.23
2017-12-03T03:41:44.026Z,98779.88
2017-12-03T03:42:46.995Z,98783.87
2017-12-03T03:43:50.299Z,98782.45
2017-12-03T03:44:53.141Z,98778.52
2017-12-03T03:45:56.034Z,98782.95
2017-12-03T03:46:58.981Z,98780.29
2017-12-03T03:48:01.930Z,98773.70
2017-12-03T03:49:04.932Z,98778.69
2017-12-03T03:50:08.235Z,98778.37
2017-12-03T03:51:11.150Z,98779.39
2017-12-03T03:52:14.179Z,98777.48
2017-12-03T03:53:17.073Z,98782.41
2017-12-03T03:54:20.000Z,98778.55
2017-12-03T03:55:22.918Z,98792.14
2017-12-03T03:56:26.287Z,98779.95
2017-12-03T03:57:29.268Z,98777.68
2017-12-03T03:58:32.210Z,98781.10
2017-12-03T03:59:35.204Z,98780.13
2017-12-03T04:00:38.157Z,98774.88
2017-12-03T04:01:41.177Z,98783.11
2017-12-03T04:02:44.576Z,98782.12
2017-12-03T04:03:47.585Z,98777.83
2017-12-03T04:04:50.493Z,98780.79
2017-12-03T04:05:53.412Z,98781.66
2017-12-03T04:06:56.360Z,98780.17
2017-12-03T04:07:59.308Z,98785.33
2017-12-03T04:09:02.629Z,98786.79
2017-12-03T04:10:05.569Z,98777.63
2017-12-03T04:11:08.547Z,98775.38
2017-12-03T04:12:11.557Z,98780.10
2017-12-03T04:13:14.626Z,98771.44
2017-12-03T04:14:17.620Z,98779.76
2017-12-03T04:15:20.943Z,98778.49
2017-12-03T04:16:23.984Z,98782.34
2017-12-03T04:17:27.069Z,98779.00
2017-12-03T04:18:30.013Z,98782.51
2017-12-03T04:19:32.967Z,98779.31
2017-12-03T04:20:35.890Z,98779.11
2017-12-03T04:21:39.428Z,98782.19
2017-12-03T04:22:42.552Z,98783.89
2017-12-03T04:23:45.506Z,98786.59
2017-12-03T04:24:48.442Z,98784.02
2017-12-03T04:25:51.386Z,98787.17
2017-12-03T04:26:54.431Z,98783.44
2017-12-03T04:27:57.831Z,98782.36
2017-12-03T04:29:00.853Z,98783.41
2017-12-03T04:30:03.947Z,98781.47
2017-12-03T04:31:06.875Z,98784.23
2017-12-03T04:32:09.929Z,98781.67
2017-12-03T04:33:12.873Z,98783.52
2017-12-03T04:34:16.282Z,98778.86
2017-12-03T04:35:19.260Z,98780.86
2017-12-03T04:36:22.197Z,98780.72
2017-12-03T04:37:25.237Z,98784.31
2017-12-03T04:38:28.209Z,98776.05
2017-12-03T04:39:31.518Z,98777.61
2017-12-03T04:40:35.224Z,98777.17
2017-12-03T04:41:38.150Z,98776.03
2017-12-03T04:42:41.151Z,98777.47
2017-12-03T04:43:44.080Z,98777.89
2017-12-03T04:44:47.184Z,98777.58
2017-12-03T04:45:50.136Z,98777.28
2017-12-03T04:46:53.493Z,98774.86
2017-12-03T04:47:56.469Z,98778.20
2017-12-03T04:48:59.669Z,98766.72
2017-12-03T04:50:02.674Z,98768.19
2017-12-03T04:51:05.745Z,98775.25
2017-12-03T04:52:08.713Z,98770.22
2017-12-03T04:53:12.102Z,98768.91
2017-12-03T04:54:15.085Z,98768.58
2017-12-03T04:55:18.070Z,98770.84
2017-12-03T04:56:20.997Z,98764.89
2017-12-03T04:57:24.059Z,98765.05
2017-12-03T04:58:26.968Z,98761.18
2017-12-03T04:59:30.620Z,98755.98
2017-12-03T05:00:33.549Z,98761.81
2017-12-03T05:01:36.511Z,98750.45
2017-12-03T05:02:39.495Z,98750.11
2017-12-03T05:03:42.298Z,98758.21
2017-12-03T05:04:45.131Z,98749.67
2017-12-03T05:05:48.397Z,98756.53
2017-12-03T05:06:51.314Z,98757.00
2017-12-03T05:07:54.261Z,98757.09
2017-12-03T05:08:57.388Z,98759.88
2017-12-03T05:10:00.315Z,98756.51
2017-12-03T05:11:03.256Z,98760.11
2017-12-03T05:12:06.778Z,98753.27
2017-12-03T05:13:09.740Z,98751.08
2017-12-03T05:14:12.757Z,98761.91
2017-12-03T05:15:15.722Z,98753.75
2017-12-03T05:16:18.704Z,98761.79
2017-12-03T05:17:21.627Z,98758.95
2017-12-03T05:18:24.977Z,98760.49
2017-12-03T05:19:27.963Z,98759.39
2017-12-03T05:20:30.899Z,98757.72
2017-12-03T05:21:33.880Z,98758.57
2017-12-03T05:22:36.836Z,98754.74
2017-12-03T05:23:39.782Z,98754.74
2017-12-03T05:24:43.212Z,98753.70
2017-12-03T05:25:46.270Z,98751.17
2017-12-03T05:26:49.206Z,98754.80
2017-12-03T05:27:52.144Z,98749.53
2017-12-03T05:28:55.117Z,98747.50
2017-12-03T05:29:58.114Z,98747.27
2017-12-03T05:31:01.478Z,98747.53
2017-12-03T05:32:04.379Z,98749.10
2017-12-03T05:33:07.326Z,98749.50
2017-12-03T05:34:10.164Z,98746.58
2017-12-03T05:35:13.137Z,98752.11
2017-12-03T05:36:16.058Z,98744.11
2017-12-03T05:37:19.533Z,98736.64
2017-12-03T05:38:22.511Z,98742.88
2017-12-03T05:39:25.447Z,98744.78
2017-12-03T05:40:28.382Z,98743.11
2017-12-03T05:41:31.355Z,98737.81
2017-12-03T05:42:34.298Z,98742.66
2017-12-03T05:43:37.542Z,98735.96
2017-12-03T05:44:40.473Z,98737.75
2017-12-03T05:45:43.434Z,98735.20
2017-12-03T05:46:46.368Z,98740.89
2017-12-03T05:47:49.375Z,98742.73
2017-12-03T05:48:52.314Z,98746.09
2017-12-03T05:49:55.653Z,98744.68
2017-12-03T05:50:58.594Z,98750.06
2017-12-03T05:52:01.532Z,98742.47
2017-12-03T05:53:04.478Z,98741.06
2017-12-03T05:54:07.450Z,98748.16
2017-12-03T05:55:10.439Z,98750.37
2017-12-03T05:56:13.709Z,98743.31
2017-12-03T05:57:16.720Z,98744.11
2017-12-03T05:58:19.727Z,98747.31
2017-12-03T05:59:22.751Z,98745.32
2017-12-03T06:00:25.721Z,98740.64
2017-12-03T06:01:28.670Z,98741.06
2017-12-03T06:02:31.960Z,98747.34
2017-12-03T06:03:35.110Z,98740.50
2017-12-03T06:04:38.319Z,98748.81
2017-12-03T06:05:41.284Z,98745.71
2017-12-03T06:06:44.267Z,98743.45
2017-12-03T06:07:47.254Z,98748.48
2017-12-03T06:08:50.624Z,98742.73
2017-12-03T06:09:53.553Z,98748.22
2017-12-03T06:10:56.414Z,98744.30
2017-12-03T06:11:59.352Z,98745.44
2017-12-03T06:13:02.264Z,98744.30
2017-12-03T06:14:05.122Z,98744.95
2017-12-03T06:15:08.480Z,98739.33
2017-12-03T06:16:11.414Z,98742.28
2017-12-03T06:17:14.392Z,98741.55
2017-12-03T06:18:17.326Z,98746.06
2017-12-03T06:19:20.310Z,98745.09
2017-12-03T06:20:23.329Z,98738.58
2017-12-03T06:21:26.915Z,98742.77
2017-12-03T06:22:30.132Z,98745.13
2017-12-03T06:23:33.057Z,98746.98
2017-12-03T06:24:36.054Z,98746.13
2017-12-03T06:25:39.104Z,98746.92
2017-12-03T06:26:42.025Z,98751.64
2017-12-03T06:27:45.430Z,98752.67
2017-12-03T06:28:48.380Z,98747.41
2017-12-03T06:29:51.302Z,98748.45
2017-12-03T06:30:54.220Z,98745.64
2017-12-03T06:31:57.189Z,98740.51
2017-12-03T06:33:00.094Z,98741.49
2017-12-03T06:34:03.433Z,98745.22
2017-12-03T06:35:06.360Z,98739.95
2017-12-03T06:36:09.336Z,98743.75
2017-12-03T06:37:14.750Z,98748.36
2017-12-03T06:38:17.976Z,98740.83
2017-12-03T06:39:20.913Z,98744.63
2017-12-03T06:40:24.607Z,98739.06
2017-12-03T06:41:27.648Z,98748.09
2017-12-03T06:42:30.602Z,98746.53
2017-12-03T06:43:33.627Z,98742.11
2017-12-03T06:44:36.695Z,98743.74
2017-12-03T06:45:39.704Z,98741.10
2017-12-03T06:46:42.717Z,98744.82
2017-12-03T06:47:45.709Z,98740.54
2017-12-03T06:48:48.678Z,98743.36
2017-12-03T06:49:51.670Z,98737.91
2017-12-03T06:50:54.642Z,98737.75
2017-12-03T06:51:57.621Z,98744.56
2017-12-03T06:53:00.927Z,98749.00
2017-12-03T06:54:03.841Z,98752.78
2017-12-03T06:55:06.790Z,98748.06
2017-12-03T06:56:09.793Z,98746.66
2017-12-03T06:57:12.745Z,98744.85
2017-12-03T06:58:15.701Z,98745.80
2017-12-03T06:59:18.954Z,98744.50
2017-12-03T07:00:22.012Z,98749.14
2017-12-03T07:01:24.939Z,98748.27
2017-12-03T07:02:27.903Z,98750.45
2017-12-03T07:03:30.913Z,98744.33
2017-12-03T07:04:33.838Z,98748.22
2017-12-03T07:05:37.255Z,98743.12
2017-12-03T07:06:40.212Z,98747.20
2017-12-03T07:07:43.277Z,98744.76
2017-12-03T07:08:46.197Z,98743.34
2017-12-03T07:09:49.199Z,98743.87
2017-12-03T07:10:52.228Z,98740.38
2017-12-03T07:11:55.538Z,98744.50
2017-12-03T07:12:58.495Z,98749.83
2017-12-03T07:14:01.440Z,98742.28
2017-12-03T07:15:04.393Z,98741.52
2017-12-03T07:16:07.348Z,98745.25
2017-12-03T07:17:10.346Z,98743.19
2017-12-03T07:18:13.805Z,98741.03
2017-12-03T07:19:16.836Z,98744.82
2017-12-03T07:20:19.862Z,98744.77
2017-12-03T07:21:22.904Z,98746.53
2017-12-03T07:22:25.869Z,98747.31
2017-12-03T07:23:28.863Z,98748.27
2017-12-03T07:24:32.382Z,98751.27
2017-12-03T07:25:35.428Z,98747.27
2017-12-03T07:26:38.363Z,98750.95
2017-12-03T07:27:41.361Z,98753.92
2017-12-03T07:28:44.483Z,98754.44
2017-12-03T07:29:47.444Z,98746.00
2017-12-03T07:30:50.751Z,98750.29
2017-12-03T07:31:53.759Z,98748.61
2017-12-03T07:32:56.710Z,98752.52
2017-12-03T07:33:59.757Z,98748.42
2017-12-03T07:35:02.899Z,98749.20
2017-12-03T07:36:05.818Z,98750.45
2017-12-03T07:37:08.688Z,98753.07
2017-12-03T07:38:14.743Z,98754.47
2017-12-03T07:39:17.990Z,98758.88
2017-12-03T07:40:21.186Z,98757.58
2017-12-03T07:41:24.491Z,98758.77
2017-12-03T07:42:28.416Z,98756.49
2017-12-03T07:43:31.371Z,98761.86
2017-12-03T07:44:34.519Z,98759.71
2017-12-03T07:45:37.492Z,98758.66
2017-12-03T07:46:40.488Z,98758.47
2017-12-03T07:47:43.469Z,98758.93
2017-12-03T07:48:46.673Z,98761.54
2017-12-03T07:49:49.634Z,98759.22
2017-12-03T07:50:52.588Z,98757.84
2017-12-03T07:51:55.653Z,98754.77
2017-12-03T07:52:59.144Z,98755.10
2017-12-03T07:54:02.515Z,98753.63
2017-12-03T07:55:05.830Z,98755.08
2017-12-03T07:56:08.770Z,98761.02
2017-12-03T07:57:11.730Z,98757.59
2017-12-03T07:58:14.720Z,98760.13
2017-12-03T07:59:17.669Z,98755.36
2017-12-03T08:00:20.685Z,98762.53
2017-12-03T08:01:23.938Z,98759.97
2017-12-03T08:02:26.954Z,98757.42
2017-12-03T08:03:29.906Z,98768.42
2017-12-03T08:04:32.859Z,98761.39
2017-12-03T08:05:35.880Z,98758.41
2017-12-03T08:06:38.885Z,98762.03
2017-12-03T08:07:42.101Z,98760.89
2017-12-03T08:08:45.164Z,98756.31
2017-12-03T08:09:48.194Z,98761.25
2017-12-03T08:10:51.149Z,98763.05
2017-12-03T08:11:54.089Z,98766.00
2017-12-03T08:12:57.031Z,98769.44
2017-12-03T08:14:00.361Z,98768.88
2017-12-03T08:15:03.286Z,98767.77
2017-12-03T08:16:06.304Z,98769.62
2017-12-03T08:17:09.290Z,98772.80
2017-12-03T08:18:14.692Z,98765.40
2017-12-03T08:19:17.650Z,98760.73
2017-12-03T08:20:20.897Z,98767.94
2017-12-03T08:21:23.858Z,98764.33
2017-12-03T08:22:26.795Z,98763.68
2017-12-03T08:23:29.755Z,98761.84
2017-12-03T08:24:32.766Z,98762.41
2017-12-03T08:25:35.684Z,98761.78
2017-12-03T08:26:39.017Z,98759.00
2017-12-03T08:27:41.967Z,98759.98
2017-12-03T08:28:45.107Z,98758.05
2017-12-03T08:29:48.036Z,98756.41
2017-12-03T08:30:50.935Z,98758.15
2017-12-03T08:31:53.784Z,98759.13
2017-12-03T08:32:57.096Z,98766.00
2017-12-03T08:34:00.073Z,98762.47
2017-12-03T08:35:03.014Z,98765.58
2017-12-03T08:36:06.034Z,98765.16
2017-12-03T08:37:08.980Z,98767.77
2017-12-03T08:38:11.934Z,98763.73
2017-12-03T08:39:15.164Z,98766.33
2017-12-03T08:40:18.113Z,98762.20
2017-12-03T08:41:21.035Z,98768.03
2017-12-03T08:42:24.038Z,98765.14
2017-12-03T08:43:26.992Z,98762.47
2017-12-03T08:44:30.154Z,98758.02
2017-12-03T08:45:33.883Z,98766.45
2017-12-03T08:46:36.887Z,98766.33
2017-12-03T08:47:40.152Z,98761.02
2017-12-03T08:48:43.290Z,98758.02
2017-12-03T08:49:46.339Z,98761.51
2017-12-03T08:50:50.872Z,98757.46
2017-12-03T08:51:54.073Z,98751.99
2017-12-03T08:52:57.146Z,98759.45
2017-12-03T08:54:00.140Z,98758.18
2017-12-03T08:55:03.073Z,98759.29
2017-12-03T08:56:06.745Z,98753.66
2017-12-03T08:57:12.591Z,98752.71
2017-12-03T08:58:15.915Z,98748.43
2017-12-03T08:59:18.802Z,98755.14
2017-12-03T09:00:21.846Z,98750.39
2017-12-03T09:01:24.793Z,98753.30
2017-12-03T09:02:27.747Z,98762.11
2017-12-03T09:03:30.711Z,98757.72
2017-12-03T09:04:33.957Z,98754.55
2017-12-03T09:05:36.937Z,98758.94
2017-12-03T09:06:40.964Z,98756.91
2017-12-03T09:07:43.964Z,98759.26
2017-12-03T09:08:46.964Z,98756.22
2017-12-03T09:09:49.902Z,98759.82
2017-12-03T09:10:53.117Z,98759.75
2017-12-03T09:11:56.201Z,98761.45
2017-12-03T09:12:59.171Z,98764.98
2017-12-03T09:14:02.164Z,98767.34
2017-12-03T09:15:05.078Z,98760.92
2017-12-03T09:16:08.117Z,98767.70
2017-12-03T09:17:11.314Z,98756.94
2017-12-03T09:18:15.886Z,98761.95
2017-12-03T09:19:18.851Z,98753.96
2017-12-03T09:20:21.776Z,98762.17
2017-12-03T09:21:24.766Z,98761.52
2017-12-03T09:22:27.758Z,98762.37
2017-12-03T09:23:31.052Z,98761.00
2017-12-03T09:24:34.128Z,98759.42
2017-12-03T09:25:37.087Z,98756.37
2017-12-03T09:26:40.042Z,98761.81
2017-12-03T09:27:43.098Z,98758.95
2017-12-03T09:28:46.034Z,98764.13
2017-12-03T09:29:49.140Z,98760.60
2017-12-03T09:30:52.237Z,98761.05
2017-12-03T09:31:55.119Z,98766.00
2017-12-03T09:32:58.005Z,98764.86
2017-12-03T09:34:00.951Z,98770.19
2017-12-03T09:35:04.074Z,98760.75
2017-12-03T09:36:07.409Z,98766.91
2017-12-03T09:37:10.293Z,98765.52
2017-12-03T09:38:13.165Z,98762.59
2017-12-03T09:39:16.184Z,98757.63
2017-12-03T09:40:19.150Z,98762.31
2017-12-03T09:41:22.086Z,98758.66
2017-12-03T09:42:25.522Z,98757.13
2017-12-03T09:43:28.733Z,98759.84
2017-12-03T09:44:31.630Z,98755.83
2017-12-03T09:45:34.553Z,98755.52
2017-12-03T09:46:37.491Z,98762.62
2017-12-03T09:47:40.462Z,98758.81
2017-12-03T09:48:43.744Z,98755.42
2017-12-03T09:49:46.762Z,98752.91
2017-12-03T09:50:49.754Z,98754.39
2017-12-03T09:51:52.719Z,98753.52
2017-12-03T09:52:55.676Z,98753.91
2017-12-03T09:53:59.415Z,98748.01
2017-12-03T09:55:02.643Z,98754.95
2017-12-03T09:56:05.649Z,98755.92
2017-12-03T09:57:08.660Z,98754.23
2017-12-03T09:58:11.707Z,98753.83
2017-12-03T09:59:14.668Z,98753.42
2017-12-03T10:00:17.730Z,98752.50
2017-12-03T10:01:21.031Z,98753.33
2017-12-03T10:02:24.041Z,98750.94
2017-12-03T10:03:27.059Z,98757.61
2017-12-03T10:04:30.072Z,98750.38
2017-12-03T10:05:33.043Z,98755.72
2017-12-03T10:06:36.032Z,98753.94
2017-12-03T10:07:39.224Z,98745.05
2017-12-03T10:08:42.270Z,98748.50
2017-12-03T10:09:45.236Z,98755.15
2017-12-03T10:10:48.253Z,98752.55
2017-12-03T10:11:51.255Z,98746.41
2017-12-03T10:12:54.274Z,98751.29
2017-12-03T10:13:57.567Z,98752.05
2017-12-03T10:15:00.501Z,98747.47
2017-12-03T10:16:03.583Z,98745.80
2017-12-03T10:17:06.559Z,98743.42
2017-12-03T10:18:09.578Z,98739.22
2017-12-03T10:19:12.516Z,98739.48
2017-12-03T10:20:15.791Z,98742.33
2017-12-03T10:21:18.791Z,98739.97
2017-12-03T10:22:21.817Z,98742.74
2017-12-03T10:23:24.800Z,98735.38
2017-12-03T10:24:27.783Z,98736.40
2017-12-03T10:25:30.769Z,98740.79
2017-12-03T10:26:33.747Z,98735.27
2017-12-03T10:27:36.733Z,98744.52
2017-12-03T10:28:39.910Z,98738.52
2017-12-03T10:29:43.076Z,98743.73
2017-12-03T10:30:46.146Z,98737.97
2017-12-03T10:31:49.647Z,98736.81
2017-12-03T10:32:52.705Z,98733.55
2017-12-03T10:33:55.683Z,98737.45
2017-12-03T10:34:58.599Z,98731.05
2017-12-03T10:36:01.760Z,98738.69
2017-12-03T10:37:04.780Z,98737.97
2017-12-03T10:38:08.035Z,98730.31
2017-12-03T10:39:11.014Z,98735.95
2017-12-03T10:40:13.977Z,98734.41
2017-12-03T10:41:17.097Z,98730.66
2017-12-03T10:42:20.090Z,98731.17
2017-12-03T10:43:23.037Z,98729.77
2017-12-03T10:44:26.296Z,98727.87
2017-12-03T10:45:29.321Z,98728.70
2017-12-03T10:46:32.358Z,98724.01
2017-12-03T10:47:35.366Z,98729.83
2017-12-03T10:48:38.301Z,98728.00
2017-12-03T10:49:41.345Z,98724.86
2017-12-03T10:50:44.318Z,98732.25
2017-12-03T10:51:47.309Z,98723.13
2017-12-03T10:52:50.310Z,98722.00
2017-12-03T10:53:53.261Z,98716.56
2017-12-03T10:54:56.268Z,98719.16
2017-12-03T10:55:59.601Z,98722.84
2017-12-03T10:57:02.653Z,98726.75
2017-12-03T10:58:05.643Z,98719.53
2017-12-03T10:59:08.630Z,98713.95
2017-12-03T11:00:11.934Z,98715.96
2017-12-03T11:01:14.978Z,98716.08
2017-12-03T11:02:18.392Z,98709.91
2017-12-03T11:03:21.510Z,98710.24
2017-12-03T11:04:24.505Z,98708.41
2017-12-03T11:05:27.572Z,98710.47
2017-12-03T11:06:30.459Z,98712.33
2017-12-03T11:07:33.437Z,98709.53
2017-12-03T11:08:36.814Z,98704.31
2017-12-03T11:09:39.795Z,98703.36
2017-12-03T11:10:42.830Z,98704.87
2017-12-03T11:11:45.833Z,98703.77
2017-12-03T11:12:48.830Z,98702.92
2017-12-03T11:13:51.769Z,98703.31
2017-12-03T11:14:55.001Z,98703.48
2017-12-03T11:15:57.923Z,98702.19
2017-12-03T11:17:01.776Z,98701.23
2017-12-03T11:18:04.816Z,98699.05
2017-12-03T11:19:07.782Z,98698.67
2017-12-03T11:20:10.760Z,98696.50
2017-12-03T11:21:14.030Z,98700.28
2017-12-03T11:22:17.036Z,98699.73
2017-12-03T11:23:20.015Z,98705.23
2017-12-03T11:24:22.991Z,98700.41
2017-12-03T11:25:26.006Z,98703.20
2017-12-03T11:26:28.978Z,98702.70
2017-12-03T11:27:32.271Z,98699.63
2017-12-03T11:28:35.338Z,98700.80
2017-12-03T11:29:38.519Z,98697.14
2017-12-03T11:30:41.524Z,98695.14
2017-12-03T11:31:44.580Z,98700.63
2017-12-03T11:32:47.618Z,98698.00
2017-12-03T11:33:50.988Z,98700.55
2017-12-03T11:34:54.073Z,98699.52
2017-12-03T11:35:57.134Z,98701.06
2017-12-03T11:37:00.164Z,98694.69
2017-12-03T11:38:03.093Z,98697.14
2017-12-03T11:39:06.067Z,98692.91
2017-12-03T11:40:09.376Z,98695.47
2017-12-03T11:41:12.343Z,98695.64
2017-12-03T11:42:15.273Z,98689.27
2017-12-03T11:43:18.354Z,98693.19
2017-12-03T11:44:21.287Z,98690.77
2017-12-03T11:45:24.176Z,98681.94
2017-12-03T11:46:27.360Z,98682.91
2017-12-03T11:47:30.279Z,98684.47
2017-12-03T11:48:33.255Z,98679.59
2017-12-03T11:49:36.216Z,98678.75
2017-12-03T11:50:39.227Z,98680.58
2017-12-03T11:51:42.248Z,98673.50
2017-12-03T11:52:45.518Z,98674.05
2017-12-03T11:53:48.579Z,98675.11
2017-12-03T11:54:51.595Z,98674.05
2017-12-03T11:55:54.555Z,98666.97
2017-12-03T11:56:57.558Z,98670.54
2017-12-03T11:58:00.539Z,98668.89
2017-12-03T11:59:03.806Z,98663.36
2017-12-03T12:00:06.806Z,98666.05
2017-12-03T12:01:09.774Z,98661.75
2017-12-03T12:02:12.733Z,98657.09
2017-12-03T12:03:15.691Z,98652.45
2017-12-03T12:04:18.658Z,98657.84
2017-12-03T12:05:21.840Z,98656.84
2017-12-03T12:06:24.790Z,98661.19
2017-12-03T12:07:27.817Z,98655.14
2017-12-03T12:08:30.781Z,98659.13
2017-12-03T12:09:33.750Z,98657.63
2017-12-03T12:10:36.779Z,98665.77
2017-12-03T12:11:40.042Z,98660.42
2017-12-03T12:12:42.959Z,98666.46
2017-12-03T12:13:45.820Z,98666.99
2017-12-03T12:14:48.705Z,98662.16
2017-12-03T12:15:51.730Z,98656.83
2017-12-03T12:16:54.604Z,98661.52
2017-12-03T12:17:57.901Z,98661.95
2017-12-03T12:19:00.893Z,98661.17
2017-12-03T12:20:03.994Z,98654.94